createdAt,value
2019-02-07T00:02:18.043Z,9.30
2019-02-07T00:04:48.558Z,9.50
2019-02-07T00:07:19.160Z,9.40
2019-02-07T00:09:49.709Z,9.30
2019-02-07T00:12:19.955Z,9.50
2019-02-07T00:14:50.269Z,9.50
2019-02-07T00:17:20.679Z,9.50
2019-02-07T00:19:51.831Z,9.50
2019-02-07T00:22:22.273Z,9.50
2019-02-07T00:24:52.513Z,9.60
2019-02-07T00:27:23.164Z,9.80
2019-02-07T00:29:53.745Z,9.40
2019-02-07T00:32:23.945Z,9.40
2019-02-07T00:34:54.149Z,9.40
2019-02-07T00:37:24.630Z,9.60
2019-02-07T00:39:54.836Z,9.40
2019-02-07T00:42:25.409Z,9.60
2019-02-07T00:44:55.640Z,9.70
2019-02-07T00:47:26.171Z,9.60
2019-02-07T00:49:56.608Z,9.50
2019-02-07T00:52:26.861Z,9.50
2019-02-07T00:54:57.391Z,9.60
2019-02-07T00:57:27.603Z,9.90
2019-02-07T01:00:01.030Z,9.90
2019-02-07T01:02:31.648Z,9.80
2019-02-07T01:05:01.849Z,9.80
2019-02-07T01:07:32.042Z,9.80
2019-02-07T01:10:02.686Z,9.60
2019-02-07T01:12:32.920Z,9.80
2019-02-07T01:15:03.185Z,9.80
2019-02-07T01:17:33.463Z,9.70
2019-02-07T01:20:05.779Z,9.80
2019-02-07T01:22:36.025Z,9.90
2019-02-07T01:25:07.966Z,9.70
2019-02-07T01:27:38.200Z,9.60
2019-02-07T01:30:10.419Z,9.60
2019-02-07T01:32:40.729Z,9.60
2019-02-07T01:35:10.969Z,9.70
2019-02-07T01:37:41.195Z,9.60
2019-02-07T01:40:14.064Z,9.80
2019-02-07T01:42:44.320Z,9.90
2019-02-07T01:45:16.977Z,9.80
2019-02-07T01:47:47.217Z,9.70
2019-02-07T01:50:19.367Z,10.10
2019-02-07T01:52:49.887Z,9.80
2019-02-07T01:55:20.503Z,9.80
2019-02-07T01:57:50.751Z,9.80
2019-02-07T02:00:21.728Z,9.90
2019-02-07T02:02:52.007Z,9.90
2019-02-07T02:05:22.628Z,9.60
2019-02-07T02:07:52.863Z,9.70
2019-02-07T02:10:24.992Z,9.70
2019-02-07T02:12:55.275Z,9.80
2019-02-07T02:15:25.525Z,9.90
2019-02-07T02:17:56.087Z,9.80
2019-02-07T02:20:27.013Z,9.90
2019-02-07T02:22:57.396Z,10.10
2019-02-07T02:25:27.717Z,9.60
2019-02-07T02:27:58.202Z,9.60
2019-02-07T02:30:33.458Z,10.20
2019-02-07T02:33:04.649Z,9.90
2019-02-07T02:35:35.254Z,10.00
2019-02-07T02:38:05.768Z,10.10
2019-02-07T02:40:36.031Z,9.90
2019-02-07T02:43:06.296Z,10.00
2019-02-07T02:45:37.877Z,10.10
2019-02-07T02:48:08.324Z,9.90
2019-02-07T02:50:38.945Z,9.90
2019-02-07T02:53:09.168Z,9.90
2019-02-07T02:55:42.010Z,10.20
2019-02-07T02:58:12.228Z,9.60
2019-02-07T03:01:00.408Z,9.80
2019-02-07T03:03:47.779Z,9.80
2019-02-07T03:06:42.716Z,9.80
2019-02-07T03:09:50.334Z,9.80
2019-02-07T03:12:42.282Z,9.90
2019-02-07T03:15:29.930Z,9.90
2019-02-07T03:18:28.252Z,9.80
2019-02-07T03:21:20.266Z,9.90
2019-02-07T03:24:08.210Z,9.70
2019-02-07T03:27:09.429Z,10.10
2019-02-07T03:30:01.768Z,9.80
2019-02-07T03:32:50.931Z,9.80
2019-02-07T03:35:58.530Z,9.80
2019-02-07T03:38:46.335Z,9.90
2019-02-07T03:41:31.127Z,9.90
2019-02-07T03:44:13.640Z,10.20
2019-02-07T03:47:02.966Z,9.90
2019-02-07T03:49:41.927Z,10.00
2019-02-07T03:52:37.159Z,9.80
2019-02-07T03:55:20.978Z,9.80
2019-02-07T03:58:25.250Z,10.10
2019-02-07T04:01:13.201Z,9.90
2019-02-07T04:03:52.321Z,10.10
2019-02-07T04:06:36.820Z,9.90
2019-02-07T04:09:26.854Z,9.70
2019-02-07T04:12:21.207Z,9.90
2019-02-07T04:15:15.811Z,10.20
2019-02-07T04:18:02.772Z,9.90
2019-02-07T04:20:50.587Z,9.70
2019-02-07T04:23:51.813Z,9.90
2019-02-07T04:26:49.921Z,9.60
2019-02-07T04:29:26.550Z,9.60
2019-02-07T04:32:22.221Z,9.50
2019-02-07T04:35:29.512Z,9.90
2019-02-07T04:38:14.375Z,9.30
2019-02-07T04:41:01.311Z,9.20
2019-02-07T04:43:50.509Z,9.00
2019-02-07T04:46:35.921Z,9.10
2019-02-07T04:49:24.009Z,8.70
2019-02-07T04:52:13.481Z,8.80
2019-02-07T04:55:01.517Z,8.70
2019-02-07T04:57:53.709Z,8.70
2019-02-07T05:00:34.548Z,8.40
2019-02-07T05:03:42.121Z,8.40
2019-02-07T05:06:43.578Z,8.60
2019-02-07T05:09:32.049Z,8.20
2019-02-07T05:12:21.172Z,8.00
2019-02-07T05:15:13.052Z,7.80
2019-02-07T05:18:02.491Z,7.70
2019-02-07T05:20:49.494Z,8.10
2019-02-07T05:23:41.638Z,7.90
2019-02-07T05:26:45.988Z,7.80
2019-02-07T05:29:34.257Z,8.00
2019-02-07T05:32:11.002Z,8.00
2019-02-07T05:34:56.188Z,7.50
2019-02-07T05:37:57.176Z,7.80
2019-02-07T05:40:38.545Z,7.90
2019-02-07T05:43:33.922Z,7.70
2019-02-07T05:46:38.321Z,7.60
2019-02-07T05:49:33.241Z,7.50
2019-02-07T05:52:34.760Z,7.50
2019-02-07T05:55:33.999Z,7.40
2019-02-07T05:58:16.553Z,7.60
2019-02-07T06:01:05.696Z,7.60
2019-02-07T06:03:42.778Z,7.60
2019-02-07T06:06:20.738Z,7.40
2019-02-07T06:09:09.963Z,7.40
2019-02-07T06:11:58.002Z,7.40
2019-02-07T06:14:42.533Z,7.20
2019-02-07T06:17:34.528Z,7.20
2019-02-07T06:20:23.444Z,7.00
2019-02-07T06:23:18.924Z,6.80
2019-02-07T06:25:58.751Z,7.00
2019-02-07T06:28:46.781Z,6.80
2019-02-07T06:31:34.646Z,6.90
2019-02-07T06:34:29.011Z,6.90
2019-02-07T06:37:19.723Z,6.90
2019-02-07T06:40:09.212Z,6.80
2019-02-07T06:42:58.887Z,6.90
2019-02-07T06:45:54.063Z,6.90
2019-02-07T06:48:49.365Z,6.30
2019-02-07T06:51:36.824Z,6.50
2019-02-07T06:54:17.260Z,6.90
2019-02-07T06:57:24.907Z,6.90
2019-02-07T07:00:22.851Z,6.70
2019-02-07T07:03:20.811Z,6.50
2019-02-07T07:06:08.899Z,6.80
2019-02-07T07:09:09.593Z,6.70
2019-02-07T07:11:57.608Z,6.60
2019-02-07T07:14:50.181Z,6.40
2019-02-07T07:17:45.204Z,6.30
2019-02-07T07:20:33.166Z,6.40
2019-02-07T07:23:16.673Z,6.60
2019-02-07T07:26:06.094Z,6.20
2019-02-07T07:28:54.131Z,6.20
2019-02-07T07:31:43.812Z,6.60
2019-02-07T07:34:27.014Z,6.80
2019-02-07T07:37:16.819Z,6.90
2019-02-07T07:39:56.939Z,6.70
2019-02-07T07:42:49.306Z,6.60
2019-02-07T07:45:39.177Z,6.60
2019-02-07T07:48:28.379Z,6.50
2019-02-07T07:51:36.056Z,6.50
2019-02-07T07:54:25.246Z,6.40
2019-02-07T07:57:20.712Z,6.80
2019-02-07T08:00:08.510Z,6.40
2019-02-07T08:02:54.740Z,6.40
2019-02-07T08:05:42.694Z,6.80
2019-02-07T08:08:31.330Z,6.30
2019-02-07T08:11:15.196Z,6.60
2019-02-07T08:14:03.117Z,6.50
2019-02-07T08:16:51.305Z,6.40
2019-02-07T08:19:39.133Z,6.40
2019-02-07T08:22:34.240Z,6.60
2019-02-07T08:25:20.536Z,6.50
2019-02-07T08:28:16.117Z,6.40
2019-02-07T08:31:04.086Z,6.90
2019-02-07T08:33:56.081Z,6.90
2019-02-07T08:36:44.692Z,6.60
2019-02-07T08:39:33.296Z,7.00
2019-02-07T08:42:41.151Z,7.10
2019-02-07T08:45:48.963Z,7.40
2019-02-07T08:48:53.618Z,7.40
2019-02-07T08:51:42.897Z,7.30
2019-02-07T08:54:44.493Z,7.60
2019-02-07T08:57:37.951Z,7.70
2019-02-07T09:00:39.767Z,7.90
2019-02-07T09:03:38.237Z,7.90
2019-02-07T09:06:17.839Z,8.30
2019-02-07T09:09:05.919Z,8.30
2019-02-07T09:11:53.767Z,8.30
2019-02-07T09:14:43.097Z,8.50
2019-02-07T09:17:20.337Z,8.60
2019-02-07T09:20:17.337Z,8.60
2019-02-07T09:23:01.952Z,8.60
2019-02-07T09:25:54.181Z,8.60
2019-02-07T09:28:42.493Z,8.50
2019-02-07T09:31:28.766Z,8.30
2019-02-07T09:34:17.920Z,8.40
2019-02-07T09:37:06.229Z,8.40
2019-02-07T09:39:54.245Z,8.50
2019-02-07T09:42:46.464Z,8.60
2019-02-07T09:45:41.666Z,8.60
2019-02-07T09:48:29.434Z,8.80
2019-02-07T09:51:34.228Z,8.60
2019-02-07T09:54:21.203Z,8.60
2019-02-07T09:57:15.483Z,8.60
2019-02-07T10:00:04.912Z,8.50
2019-02-07T10:02:57.056Z,8.60
2019-02-07T10:05:52.421Z,8.50
2019-02-07T10:08:40.240Z,8.60
2019-02-07T10:11:22.308Z,8.50
2019-02-07T10:14:11.497Z,8.50
2019-02-07T10:17:10.401Z,8.50
2019-02-07T10:19:58.174Z,8.30
2019-02-07T10:22:47.480Z,8.20
2019-02-07T10:25:37.350Z,8.30
2019-02-07T10:28:25.546Z,8.80
2019-02-07T10:31:09.171Z,9.20
2019-02-07T10:33:58.717Z,9.40
2019-02-07T10:37:00.404Z,9.40
2019-02-07T10:39:49.623Z,9.60
2019-02-07T10:42:57.242Z,9.80
2019-02-07T10:45:45.601Z,10.20
2019-02-07T10:48:44.452Z,10.30
2019-02-07T10:51:29.973Z,10.30
2019-02-07T10:54:18.181Z,10.30
2019-02-07T10:57:08.644Z,10.00
2019-02-07T10:59:56.607Z,9.70
2019-02-07T11:02:54.531Z,9.80
2019-02-07T11:05:46.798Z,9.80
2019-02-07T11:08:44.770Z,9.80
2019-02-07T11:11:21.485Z,9.80
2019-02-07T11:14:20.306Z,10.10
2019-02-07T11:17:09.581Z,10.40
2019-02-07T11:20:10.957Z,10.50
2019-02-07T11:22:53.233Z,10.40
2019-02-07T11:25:42.451Z,10.50
2019-02-07T11:28:30.439Z,10.70
2019-02-07T11:31:07.909Z,10.40
2019-02-07T11:33:47.148Z,10.60
2019-02-07T11:36:53.775Z,10.10
2019-02-07T11:39:34.860Z,10.10
2019-02-07T11:42:30.092Z,10.10
2019-02-07T11:45:13.428Z,10.00
2019-02-07T11:48:05.496Z,10.20
2019-02-07T11:50:53.444Z,10.40
2019-02-07T11:53:41.353Z,10.60
2019-02-07T11:56:36.643Z,10.40
2019-02-07T11:59:24.753Z,10.40
2019-02-07T12:02:17.175Z,10.10
2019-02-07T12:04:58.568Z,10.00
2019-02-07T12:07:51.150Z,10.20
2019-02-07T12:10:37.536Z,10.60
2019-02-07T12:13:25.692Z,10.40
2019-02-07T12:16:30.220Z,10.30
2019-02-07T12:19:20.345Z,10.30
2019-02-07T12:22:15.600Z,10.10
2019-02-07T12:25:11.118Z,10.10
2019-02-07T12:28:09.679Z,10.10
2019-02-07T12:30:58.731Z,10.30
2019-02-07T12:33:40.168Z,10.20
2019-02-07T12:36:44.447Z,10.20
2019-02-07T12:39:32.817Z,10.00
2019-02-07T12:42:20.618Z,9.80
2019-02-07T12:45:14.346Z,9.90
2019-02-07T12:48:06.774Z,9.90
2019-02-07T12:51:01.947Z,9.90
2019-02-07T12:53:52.120Z,10.00
2019-02-07T12:56:40.058Z,10.00
2019-02-07T12:59:27.967Z,10.00
2019-02-07T13:02:16.703Z,10.10
2019-02-07T13:05:18.199Z,10.00
2019-02-07T13:08:16.297Z,10.20
2019-02-07T13:11:18.249Z,10.40
2019-02-07T13:14:07.482Z,10.00
2019-02-07T13:17:05.818Z,10.00
2019-02-07T13:19:55.350Z,9.80
2019-02-07T13:22:47.982Z,9.70
2019-02-07T13:25:44.653Z,9.80
2019-02-07T13:28:32.705Z,9.80
2019-02-07T13:31:24.160Z,9.90
2019-02-07T13:34:11.972Z,10.20
2019-02-07T13:37:02.001Z,10.30
2019-02-07T13:39:50.005Z,10.00
2019-02-07T13:42:37.983Z,10.10
2019-02-07T13:45:28.088Z,10.10
2019-02-07T13:48:20.447Z,10.00
2019-02-07T13:51:27.986Z,10.20
2019-02-07T13:54:19.968Z,10.30
2019-02-07T13:57:12.536Z,10.10
2019-02-07T13:59:55.729Z,10.00
2019-02-07T14:02:57.603Z,10.00
2019-02-07T14:05:53.045Z,9.80
2019-02-07T14:08:48.423Z,10.00
2019-02-07T14:11:49.705Z,10.30
2019-02-07T14:14:38.143Z,10.10
2019-02-07T14:17:27.344Z,10.00
2019-02-07T14:20:16.490Z,10.00
2019-02-07T14:23:04.084Z,10.00
2019-02-07T14:25:57.305Z,9.80
2019-02-07T14:28:45.538Z,10.00
2019-02-07T14:31:35.462Z,9.90
2019-02-07T14:34:23.572Z,10.00
2019-02-07T14:37:19.110Z,10.20
2019-02-07T14:40:11.388Z,9.80
2019-02-07T14:43:06.420Z,9.80
2019-02-07T14:45:58.427Z,9.80
2019-02-07T14:48:29.011Z,9.70
2019-02-07T14:50:59.234Z,9.70
2019-02-07T14:53:29.496Z,9.70
2019-02-07T14:56:00.132Z,9.60
2019-02-07T14:58:30.374Z,9.70
2019-02-07T15:01:00.743Z,9.50
2019-02-07T15:03:31.699Z,9.40
2019-02-07T15:06:02.005Z,9.60
2019-02-07T15:08:32.158Z,9.40
2019-02-07T15:11:02.810Z,9.40
2019-02-07T15:13:33.012Z,9.60
2019-02-07T15:16:04.337Z,9.20
2019-02-07T15:18:34.814Z,9.20
2019-02-07T15:21:06.012Z,9.10
2019-02-07T15:23:36.854Z,9.10
2019-02-07T15:26:08.805Z,9.10
2019-02-07T15:28:39.043Z,9.30
2019-02-07T15:31:09.237Z,9.20
2019-02-07T15:33:39.499Z,9.20
2019-02-07T15:36:11.156Z,9.10
2019-02-07T15:38:41.817Z,9.10
2019-02-07T15:41:12.147Z,9.10
2019-02-07T15:43:42.804Z,9.20
2019-02-07T15:46:13.038Z,9.00
2019-02-07T15:48:43.299Z,9.10
2019-02-07T15:51:13.944Z,9.10
2019-02-07T15:53:44.790Z,9.20
2019-02-07T15:56:15.023Z,9.30
2019-02-07T15:59:03.580Z,9.20
2019-02-07T16:01:38.640Z,9.30
2019-02-07T16:04:12.954Z,9.30
2019-02-07T16:06:43.842Z,9.10
2019-02-07T16:09:15.126Z,8.90
2019-02-07T16:11:45.437Z,8.80
2019-02-07T16:14:15.730Z,8.90
2019-02-07T16:16:45.982Z,8.80
2019-02-07T16:19:16.557Z,8.80
2019-02-07T16:21:46.802Z,8.60
2019-02-07T16:24:17.873Z,8.90
2019-02-07T16:26:48.150Z,8.60
2019-02-07T16:29:18.797Z,8.50
2019-02-07T16:31:49.478Z,8.50
2019-02-07T16:34:19.739Z,8.60
2019-02-07T16:36:50.418Z,8.60
2019-02-07T16:39:21.440Z,8.60
2019-02-07T16:41:51.679Z,8.30
2019-02-07T16:44:22.078Z,8.10
2019-02-07T16:46:54.525Z,8.10
2019-02-07T16:49:24.821Z,7.90
2019-02-07T16:51:55.510Z,7.90
2019-02-07T16:54:25.777Z,7.90
2019-02-07T16:56:56.088Z,7.90
2019-02-07T16:59:26.675Z,7.90
2019-02-07T17:01:56.907Z,7.90
2019-02-07T17:04:27.367Z,7.90
2019-02-07T17:06:57.876Z,7.90
2019-02-07T17:09:31.920Z,7.80
2019-02-07T17:12:02.243Z,8.00
2019-02-07T17:14:32.566Z,7.90
2019-02-07T17:17:05.486Z,7.90
2019-02-07T17:19:35.541Z,7.90
2019-02-07T17:22:05.709Z,7.60
2019-02-07T17:24:35.947Z,7.50
2019-02-07T17:27:06.614Z,7.60
2019-02-07T17:29:37.121Z,7.70
2019-02-07T17:32:07.353Z,7.50
2019-02-07T17:34:37.630Z,7.60
2019-02-07T17:37:08.155Z,7.70
2019-02-07T17:39:38.765Z,7.50
2019-02-07T17:42:21.545Z,7.70
2019-02-07T17:44:51.753Z,7.60
2019-02-07T17:47:21.958Z,7.70
2019-02-07T17:49:52.167Z,7.60
2019-02-07T17:52:22.776Z,7.70
2019-02-07T17:54:53.000Z,7.60
2019-02-07T17:57:23.295Z,7.70
2019-02-07T17:59:53.698Z,7.40
2019-02-07T18:02:23.964Z,7.40
2019-02-07T18:04:54.147Z,7.40
2019-02-07T18:07:24.674Z,7.60
2019-02-07T18:09:54.953Z,7.70
2019-02-07T18:12:25.169Z,7.60
2019-02-07T18:14:55.375Z,7.60
2019-02-07T18:17:26.299Z,7.20
2019-02-07T18:19:56.512Z,7.30
2019-02-07T18:22:27.354Z,7.40
2019-02-07T18:24:57.953Z,7.40
2019-02-07T18:27:28.696Z,7.40
2019-02-07T18:29:58.876Z,7.40
2019-02-07T18:32:29.483Z,7.30
2019-02-07T18:35:00.352Z,7.30
2019-02-07T18:37:30.852Z,7.40
2019-02-07T18:40:01.754Z,7.40
2019-02-07T18:42:32.058Z,7.30
2019-02-07T18:45:02.613Z,7.40
2019-02-07T18:47:32.848Z,6.70
2019-02-07T18:50:03.174Z,7.10
2019-02-07T18:52:33.404Z,6.90
2019-02-07T18:55:04.050Z,7.10
2019-02-07T18:57:34.311Z,7.10
2019-02-07T19:00:06.900Z,7.10
2019-02-07T19:02:37.340Z,6.90
2019-02-07T19:05:09.486Z,7.10
2019-02-07T19:07:39.700Z,7.10
2019-02-07T19:10:10.966Z,6.70
2019-02-07T19:12:41.166Z,7.10
2019-02-07T19:15:14.951Z,6.90
2019-02-07T19:17:45.208Z,6.90
2019-02-07T19:20:17.721Z,6.90
2019-02-07T19:22:48.431Z,6.80
2019-02-07T19:25:19.164Z,6.90
2019-02-07T19:27:49.689Z,7.00
2019-02-07T19:30:28.524Z,6.70
2019-02-07T19:32:59.206Z,6.80
2019-02-07T19:35:29.488Z,6.40
2019-02-07T19:37:59.810Z,6.80
2019-02-07T19:40:30.026Z,6.90
2019-02-07T19:43:01.366Z,6.60
2019-02-07T19:45:31.604Z,6.60
2019-02-07T19:48:01.835Z,7.00
2019-02-07T19:50:32.085Z,6.60
2019-02-07T19:53:02.899Z,6.50
2019-02-07T19:55:33.577Z,6.40
2019-02-07T19:58:03.990Z,6.90
2019-02-07T20:00:34.633Z,6.70
2019-02-07T20:03:05.627Z,6.80
2019-02-07T20:05:36.137Z,6.20
2019-02-07T20:08:06.444Z,6.70
2019-02-07T20:10:36.914Z,6.60
2019-02-07T20:13:07.467Z,6.60
2019-02-07T20:15:39.793Z,6.50
2019-02-07T20:18:10.773Z,6.50
2019-02-07T20:20:41.807Z,6.30
2019-02-07T20:23:12.618Z,6.50
2019-02-07T20:25:43.224Z,6.70
2019-02-07T20:28:13.431Z,6.40
2019-02-07T20:30:44.076Z,6.70
2019-02-07T20:33:14.317Z,6.50
2019-02-07T20:35:44.634Z,6.50
2019-02-07T20:38:14.856Z,6.40
2019-02-07T20:40:45.501Z,6.60
2019-02-07T20:43:15.876Z,6.60
2019-02-07T20:45:46.634Z,6.60
2019-02-07T20:48:17.429Z,6.70
2019-02-07T20:50:47.748Z,6.20
2019-02-07T20:53:18.187Z,6.70
2019-02-07T20:55:49.042Z,6.20
2019-02-07T20:58:19.314Z,6.60
2019-02-07T21:00:49.580Z,6.70
2019-02-07T21:03:20.491Z,6.50
2019-02-07T21:05:51.021Z,6.70
2019-02-07T21:08:21.528Z,6.70
2019-02-07T21:10:52.605Z,6.60
2019-02-07T21:13:23.132Z,6.20
2019-02-07T21:15:53.641Z,6.30
2019-02-07T21:18:24.406Z,6.30
2019-02-07T21:20:54.627Z,6.20
2019-02-07T21:23:24.821Z,6.30
2019-02-07T21:25:55.193Z,6.50
2019-02-07T21:28:25.705Z,6.50
2019-02-07T21:30:55.921Z,6.80
2019-02-07T21:33:26.129Z,6.50
2019-02-07T21:35:56.334Z,6.20
2019-02-07T21:38:27.449Z,6.60
2019-02-07T21:40:58.421Z,6.60
2019-02-07T21:43:29.001Z,6.30
2019-02-07T21:45:59.246Z,6.20
2019-02-07T21:48:29.582Z,6.20
2019-02-07T21:51:00.065Z,6.40
2019-02-07T21:53:30.596Z,6.70
2019-02-07T21:56:01.471Z,6.70
2019-02-07T21:58:31.673Z,6.50
2019-02-07T22:01:01.927Z,6.40
2019-02-07T22:03:32.107Z,6.40
2019-02-07T22:06:02.336Z,6.50
2019-02-07T22:08:32.588Z,6.70
2019-02-07T22:11:03.229Z,6.60
2019-02-07T22:13:33.523Z,6.30
2019-02-07T22:16:03.704Z,6.60
2019-02-07T22:18:33.998Z,6.20
2019-02-07T22:21:04.228Z,6.20
2019-02-07T22:26:19.317Z,6.10
2019-02-07T22:28:49.566Z,6.00
2019-02-07T22:31:19.808Z,6.30
2019-02-07T22:33:50.033Z,6.10
2019-02-07T22:36:20.337Z,6.50
2019-02-07T22:38:50.563Z,6.20
2019-02-07T22:41:20.777Z,6.40
2019-02-07T22:43:50.978Z,6.30
2019-02-07T22:46:21.197Z,6.60
2019-02-07T22:48:52.043Z,6.50
2019-02-07T22:51:22.257Z,6.40
2019-02-07T22:53:52.436Z,6.10
2019-02-07T22:56:22.974Z,6.10
2019-02-07T22:58:53.177Z,6.30
2019-02-07T23:02:01.376Z,6.50
2019-02-07T23:04:31.950Z,6.20
2019-02-07T23:07:02.918Z,6.00
2019-02-07T23:09:33.120Z,6.50
2019-02-07T23:12:03.311Z,6.10
2019-02-07T23:14:33.462Z,6.50
2019-02-07T23:17:03.673Z,6.30
2019-02-07T23:19:33.936Z,6.60
2019-02-07T23:22:04.722Z,6.90
2019-02-07T23:24:35.833Z,6.40
2019-02-07T23:27:06.292Z,6.80
2019-02-07T23:29:36.433Z,6.60
2019-02-07T23:32:06.878Z,6.60
2019-02-07T23:34:37.077Z,6.60
2019-02-07T23:37:07.384Z,6.80
2019-02-07T23:39:37.608Z,6.80
2019-02-07T23:42:07.800Z,6.50
2019-02-07T23:44:38.083Z,6.40
2019-02-07T23:47:08.263Z,6.50
2019-02-07T23:49:38.469Z,6.40
2019-02-07T23:52:09.155Z,6.80
2019-02-07T23:54:39.387Z,6.50
2019-02-07T23:57:09.599Z,6.60
2019-02-07T23:59:39.855Z,6.60
